Time;durP1;ratioP1;P1;durP2;ratioP2;P2;SDS_P1;SDS_P2;PMS_P1;PMS_P2;Temp;Humidity;BMP_temperature;BMP_pressure;BME280_temperature;BME280_humidity;BME280_pressure;Samples;Min_cycle;Max_cycle;Signal;HPM_P1;HPM_P2
2023/01/17 00:01:06;;;;;;;58.30;3.63;;;;;;;;;;5072269;28;20207;-71
2023/01/17 00:09:51;;;;;;;58.50;3.60;;;;;;;;;;5072399;28;20229;-72
2023/01/17 00:11:51;;;;;;;58.38;3.88;;;;;;;;;;5071991;28;20207;-72
2023/01/17 00:14:18;;;;;;;58.67;4.25;;;;;;;;;;5072261;28;20205;-72
2023/01/17 00:16:45;;;;;;;63.35;4.35;;;;;;;;;;5072189;28;20214;-72
2023/01/17 01:34:02;;;;;;;59.85;4.22;;;;;;;;;;5071479;28;20581;-72
2023/01/17 01:36:29;;;;;;;59.50;4.07;;;;;;;;;;5071878;28;20206;-72
2023/01/17 01:38:57;;;;;;;59.20;4.40;;;;;;;;;;5070561;28;20579;-72
2023/01/17 01:41:25;;;;;;;58.13;4.25;;;;;;;;;;5071632;28;20214;-72
2023/01/17 01:43:52;;;;;;;58.88;4.25;;;;;;;;;;5072722;28;20711;-72
2023/01/17 01:46:22;;;;;;;58.58;4.00;;;;;;;;;;5075025;28;20608;-72
2023/01/17 01:48:51;;;;;;;59.35;4.18;;;;;;;;;;5074148;28;20216;-72
2023/01/17 01:51:20;;;;;;;59.35;3.95;;;;;;;;;;5075079;28;20709;-72
2023/01/17 01:53:49;;;;;;;59.45;4.47;;;;;;;;;;5074543;28;20732;-72
2023/01/17 01:56:19;;;;;;;58.85;5.50;;;;;;;;;;5074600;28;20677;-72
2023/01/17 01:58:48;;;;;;;57.88;3.53;;;;;;;;;;5074037;28;20210;-72
2023/01/17 02:01:16;;;;;;;59.30;3.83;;;;;;;;;;5074720;28;20207;-72
2023/01/17 02:03:43;;;;;;;59.03;4.45;;;;;;;;;;5074435;28;20235;-72
2023/01/17 02:06:16;;;;;;;58.47;4.28;;;;;;;;;;5074336;28;20215;-72
2023/01/17 02:08:43;;;;;;;59.80;4.20;;;;;;;;;;5074022;28;20191;-72
2023/01/17 02:11:10;;;;;;;58.47;4.07;;;;;;;;;;5074558;28;20214;-72
2023/01/17 02:13:39;;;;;;;61.25;4.20;;;;;;;;;;5074358;28;20228;-72
2023/01/17 02:16:10;;;;;;;58.42;4.03;;;;;;;;;;5074292;28;20211;-72
2023/01/17 02:18:43;;;;;;;59.90;4.13;;;;;;;;;;5073675;28;20230;-70
2023/01/17 02:21:21;;;;;;;59.30;4.10;;;;;;;;;;5074377;28;20574;-70
2023/01/17 02:24:10;;;;;;;58.28;3.80;;;;;;;;;;5074127;28;20232;-70
2023/01/17 02:26:51;;;;;;;58.50;4.38;;;;;;;;;;5074146;28;20208;-70
2023/01/17 02:29:42;;;;;;;64.45;4.53;;;;;;;;;;5073595;28;20218;-69
2023/01/17 02:32:12;;;;;;;58.40;3.70;;;;;;;;;;5074036;28;20235;-70
2023/01/17 02:34:44;;;;;;;60.80;3.90;;;;;;;;;;5074346;28;20197;-70
2023/01/17 02:37:15;;;;;;;58.10;3.95;;;;;;;;;;5073774;28;20219;-69
2023/01/17 02:39:47;;;;;;;58.97;4.40;;;;;;;;;;5073399;28;20212;-70
2023/01/17 02:42:16;;;;;;;60.45;4.18;;;;;;;;;;5074271;28;20246;-70
2023/01/17 02:44:44;;;;;;;59.85;3.63;;;;;;;;;;5073822;28;20242;-70
2023/01/17 02:47:22;;;;;;;58.28;3.72;;;;;;;;;;5073825;28;20586;-71
2023/01/17 02:49:50;;;;;;;59.22;4.20;;;;;;;;;;5069403;28;20207;-70
2023/01/17 02:52:23;;;;;;;58.13;3.70;;;;;;;;;;5073576;28;20260;-70
2023/01/17 02:55:05;;;;;;;58.92;3.72;;;;;;;;;;5072950;28;20692;-70
2023/01/17 02:57:39;;;;;;;63.28;3.83;;;;;;;;;;5073722;28;20218;-71
2023/01/17 03:00:10;;;;;;;59.42;3.70;;;;;;;;;;5072779;28;20217;-71
2023/01/17 03:02:41;;;;;;;59.00;3.83;;;;;;;;;;5073677;28;20232;-71
2023/01/17 03:05:11;;;;;;;57.83;3.50;;;;;;;;;;5072969;28;20440;-71
2023/01/17 03:07:39;;;;;;;59.30;3.67;;;;;;;;;;5073840;28;20213;-70
2023/01/17 03:10:07;;;;;;;59.97;4.47;;;;;;;;;;5072817;28;20255;-71
2023/01/17 03:12:36;;;;;;;58.47;3.92;;;;;;;;;;5073183;28;20224;-71
2023/01/17 03:15:03;;;;;;;59.45;3.80;;;;;;;;;;5073200;28;20213;-71
2023/01/17 03:17:31;;;;;;;58.40;3.65;;;;;;;;;;5073036;28;20295;-70
2023/01/17 03:20:00;;;;;;;59.20;3.63;;;;;;;;;;5072335;28;20641;-71
2023/01/17 03:22:27;;;;;;;58.45;3.80;;;;;;;;;;5073072;28;20227;-71
2023/01/17 03:24:54;;;;;;;58.33;3.78;;;;;;;;;;5072688;28;20716;-71
2023/01/17 03:27:21;;;;;;;60.38;4.25;;;;;;;;;;5073200;28;20225;-71
2023/01/17 03:29:48;;;;;;;57.90;3.60;;;;;;;;;;5072166;28;20207;-71
2023/01/17 03:32:15;;;;;;;58.10;3.50;;;;;;;;;;5072584;28;20244;-71
2023/01/17 03:34:42;;;;;;;60.75;4.32;;;;;;;;;;5072983;28;20208;-71
2023/01/17 03:37:11;;;;;;;58.97;4.05;;;;;;;;;;5072844;28;20219;-71
2023/01/17 03:39:38;;;;;;;58.53;3.60;;;;;;;;;;5072123;28;20208;-70
2023/01/17 03:42:05;;;;;;;58.97;3.90;;;;;;;;;;5072644;28;20224;-71
2023/01/17 03:44:33;;;;;;;60.50;4.13;;;;;;;;;;5072756;28;20234;-71
2023/01/17 03:47:00;;;;;;;58.28;3.60;;;;;;;;;;5072783;28;20208;-70
2023/01/17 03:49:27;;;;;;;58.78;3.50;;;;;;;;;;5071923;28;20583;-70
2023/01/17 03:51:54;;;;;;;58.20;3.65;;;;;;;;;;5072260;28;20214;-70
2023/01/17 03:54:22;;;;;;;58.55;3.67;;;;;;;;;;5072535;28;20211;-70
2023/01/17 03:56:49;;;;;;;59.00;4.20;;;;;;;;;;5072458;28;20213;-71
2023/01/17 03:59:16;;;;;;;58.55;4.20;;;;;;;;;;5071796;28;20220;-70
2023/01/17 04:01:44;;;;;;;58.10;3.65;;;;;;;;;;5072645;28;20210;-73
2023/01/17 04:04:11;;;;;;;58.35;3.70;;;;;;;;;;5072341;28;20207;-70
2023/01/17 04:06:38;;;;;;;58.97;4.00;;;;;;;;;;5071460;28;20697;-72
2023/01/17 04:09:05;;;;;;;59.63;4.65;;;;;;;;;;5071607;28;20207;-73
2023/01/17 04:11:33;;;;;;;59.03;4.32;;;;;;;;;;5072229;28;20211;-73
2023/01/17 04:14:00;;;;;;;59.53;4.00;;;;;;;;;;5072327;28;20595;-72
2023/01/17 04:16:29;;;;;;;59.00;3.63;;;;;;;;;;5072274;28;20198;-72
2023/01/17 04:18:56;;;;;;;58.00;3.63;;;;;;;;;;5071861;28;20206;-73
2023/01/17 04:21:23;;;;;;;60.53;3.90;;;;;;;;;;5072227;28;20366;-73
2023/01/17 04:23:51;;;;;;;58.38;4.15;;;;;;;;;;5072058;28;20234;-73
2023/01/17 04:26:18;;;;;;;61.60;4.30;;;;;;;;;;5071849;28;20223;-72
2023/01/17 04:28:46;;;;;;;58.38;3.70;;;;;;;;;;5071461;28;20581;-70
2023/01/17 04:31:15;;;;;;;58.20;3.90;;;;;;;;;;5072038;28;20212;-70
2023/01/17 04:33:42;;;;;;;58.67;4.20;;;;;;;;;;5071942;28;20230;-70
2023/01/17 04:36:09;;;;;;;58.38;3.75;;;;;;;;;;5071996;28;20207;-70
2023/01/17 04:38:36;;;;;;;58.58;3.85;;;;;;;;;;5071204;28;20215;-70
2023/01/17 04:41:03;;;;;;;59.78;4.22;;;;;;;;;;5071808;28;20587;-70
2023/01/17 04:43:30;;;;;;;58.88;3.85;;;;;;;;;;5071935;28;20222;-70
2023/01/17 04:45:59;;;;;;;59.92;4.68;;;;;;;;;;5071618;28;20227;-70
2023/01/17 04:48:26;;;;;;;58.42;4.20;;;;;;;;;;5071702;28;20208;-70
2023/01/17 04:50:59;;;;;;;58.70;4.28;;;;;;;;;;5071260;28;20206;-70
2023/01/17 04:53:26;;;;;;;59.13;4.35;;;;;;;;;;5071592;28;20226;-70
2023/01/17 04:55:53;;;;;;;63.08;4.28;;;;;;;;;;5072083;28;20202;-70
2023/01/17 04:58:20;;;;;;;60.47;4.80;;;;;;;;;;5071689;28;20209;-70
2023/01/17 05:00:49;;;;;;;60.20;4.15;;;;;;;;;;5071169;28;20589;-70
2023/01/17 05:03:18;;;;;;;59.15;4.47;;;;;;;;;;5071777;28;20571;-70
2023/01/17 05:05:45;;;;;;;58.75;4.32;;;;;;;;;;5071581;28;20223;-70
2023/01/17 05:08:12;;;;;;;60.30;4.85;;;;;;;;;;5071432;28;20581;-70
2023/01/17 05:10:39;;;;;;;59.25;4.63;;;;;;;;;;5070951;28;20208;-70
2023/01/17 05:13:06;;;;;;;59.80;4.80;;;;;;;;;;5071438;28;20227;-70
2023/01/17 05:15:33;;;;;;;59.38;4.70;;;;;;;;;;5071575;28;20200;-70
2023/01/17 05:18:00;;;;;;;59.17;4.38;;;;;;;;;;5072104;28;20209;-70
2023/01/17 05:20:29;;;;;;;61.58;5.30;;;;;;;;;;5074614;28;20209;-70
2023/01/17 05:22:56;;;;;;;59.40;4.85;;;;;;;;;;5075458;28;20256;-70
2023/01/17 05:25:24;;;;;;;59.92;4.88;;;;;;;;;;5075183;28;20233;-70
2023/01/17 05:27:51;;;;;;;60.65;4.70;;;;;;;;;;5075313;28;20221;-70
2023/01/17 05:30:19;;;;;;;61.90;5.50;;;;;;;;;;5074548;28;20216;-70
2023/01/17 05:32:48;;;;;;;60.50;4.80;;;;;;;;;;5075101;28;20232;-70
2023/01/17 05:35:15;;;;;;;65.45;6.00;;;;;;;;;;5075078;28;20408;-70
2023/01/17 05:37:47;;;;;;;61.75;5.30;;;;;;;;;;5075212;28;20293;-70
2023/01/17 05:40:15;;;;;;;61.25;5.80;;;;;;;;;;5074426;28;20202;-70
2023/01/17 05:42:45;;;;;;;61.08;5.68;;;;;;;;;;5074872;28;20237;-70
2023/01/17 05:45:15;;;;;;;59.88;5.75;;;;;;;;;;5074768;28;20236;-70
2023/01/17 05:47:42;;;;;;;59.53;5.30;;;;;;;;;;5074716;28;20206;-70
2023/01/17 05:50:10;;;;;;;60.55;5.28;;;;;;;;;;5074081;28;20210;-70
2023/01/17 05:52:37;;;;;;;61.85;5.28;;;;;;;;;;5074861;28;20233;-70
2023/01/17 05:55:06;;;;;;;62.20;5.55;;;;;;;;;;5074854;28;20208;-70
2023/01/17 05:57:34;;;;;;;62.10;5.40;;;;;;;;;;5074711;28;20211;-70
2023/01/17 06:00:01;;;;;;;60.78;4.88;;;;;;;;;;5073880;28;20215;-70
2023/01/17 06:02:28;;;;;;;61.45;5.53;;;;;;;;;;5074655;28;20600;-70
2023/01/17 06:04:55;;;;;;;66.07;6.32;;;;;;;;;;5074589;28;20205;-70
2023/01/17 06:07:22;;;;;;;60.58;5.35;;;;;;;;;;5074513;28;20690;-73
2023/01/17 06:09:49;;;;;;;61.10;6.45;;;;;;;;;;5073796;28;20209;-72
2023/01/17 06:12:18;;;;;;;63.80;7.13;;;;;;;;;;5074410;28;20232;-72
2023/01/17 06:14:45;;;;;;;61.38;6.22;;;;;;;;;;5074323;28;20229;-73
2023/01/17 06:17:12;;;;;;;61.72;6.00;;;;;;;;;;5074610;28;20201;-73
2023/01/17 06:19:39;;;;;;;60.67;6.10;;;;;;;;;;5073881;28;20213;-73
2023/01/17 06:22:06;;;;;;;67.32;6.57;;;;;;;;;;5074088;28;20711;-73
2023/01/17 06:24:33;;;;;;;61.42;6.53;;;;;;;;;;5074328;28;20224;-73
2023/01/17 06:27:00;;;;;;;62.45;6.75;;;;;;;;;;5074001;28;20255;-73
2023/01/17 06:29:30;;;;;;;62.30;6.70;;;;;;;;;;5072944;28;20647;-73
2023/01/17 06:31:57;;;;;;;61.20;6.60;;;;;;;;;;5073844;28;20228;-73
2023/01/17 06:34:24;;;;;;;63.95;6.63;;;;;;;;;;5074266;28;20216;-72
2023/01/17 06:36:51;;;;;;;62.75;5.93;;;;;;;;;;5074126;28;20204;-72
2023/01/17 06:39:19;;;;;;;61.30;6.43;;;;;;;;;;5072882;28;20209;-72
2023/01/17 06:41:46;;;;;;;65.95;6.30;;;;;;;;;;5073715;28;20212;-72
2023/01/17 06:44:13;;;;;;;61.13;5.97;;;;;;;;;;5074427;28;20209;-74
2023/01/17 06:46:42;;;;;;;64.30;6.03;;;;;;;;;;5073847;28;20226;-74
2023/01/17 06:49:09;;;;;;;64.20;5.85;;;;;;;;;;5072947;28;20205;-74
2023/01/17 06:51:36;;;;;;;60.95;5.45;;;;;;;;;;5073990;28;20213;-74
2023/01/17 06:54:03;;;;;;;62.25;6.82;;;;;;;;;;5073790;28;20209;-74
2023/01/17 06:56:31;;;;;;;65.45;8.18;;;;;;;;;;5073533;28;20206;-74
2023/01/17 06:58:58;;;;;;;65.43;7.65;;;;;;;;;;5072913;28;20209;-74
2023/01/17 07:01:25;;;;;;;62.50;7.03;;;;;;;;;;5073574;28;20205;-74
2023/01/17 07:03:54;;;;;;;63.58;7.68;;;;;;;;;;5073615;28;20225;-73
2023/01/17 07:06:22;;;;;;;68.57;7.35;;;;;;;;;;5073361;28;20256;-73
2023/01/17 07:08:49;;;;;;;65.13;8.13;;;;;;;;;;5072625;28;20267;-72
2023/01/17 07:11:16;;;;;;;63.50;7.47;;;;;;;;;;5073680;28;20240;-72
2023/01/17 07:13:44;;;;;;;67.60;7.10;;;;;;;;;;5073338;28;20232;-72
2023/01/17 07:16:11;;;;;;;66.90;8.85;;;;;;;;;;5073193;28;20205;-72
2023/01/17 07:18:38;;;;;;;64.18;8.38;;;;;;;;;;5072635;28;20206;-72
2023/01/17 07:21:12;;;;;;;70.03;8.48;;;;;;;;;;5073030;28;20209;-72
2023/01/17 07:23:39;;;;;;;69.78;9.27;;;;;;;;;;5072927;28;20230;-72
2023/01/17 07:26:06;;;;;;;63.97;7.78;;;;;;;;;;5072848;28;20229;-73
2023/01/17 07:28:34;;;;;;;69.78;9.18;;;;;;;;;;5072554;28;20214;-74
2023/01/17 07:31:05;;;;;;;67.05;8.00;;;;;;;;;;5073096;28;20596;-74
2023/01/17 07:33:32;;;;;;;64.25;9.25;;;;;;;;;;5072804;28;20237;-74
2023/01/17 07:35:59;;;;;;;63.75;8.60;;;;;;;;;;5072756;28;20689;-74
2023/01/17 07:38:28;;;;;;;68.43;9.15;;;;;;;;;;5072824;28;20205;-74
2023/01/17 07:40:58;;;;;;;70.22;10.50;;;;;;;;;;5072306;28;20569;-74
2023/01/17 07:43:26;;;;;;;67.55;9.77;;;;;;;;;;5072642;28;20779;-74
2023/01/17 07:45:53;;;;;;;67.65;9.25;;;;;;;;;;5072605;28;20225;-74
2023/01/17 07:48:21;;;;;;;66.30;9.00;;;;;;;;;;5072515;28;20207;-75
2023/01/17 07:50:52;;;;;;;67.22;9.65;;;;;;;;;;5072756;28;20211;-75
2023/01/17 07:53:19;;;;;;;74.90;14.77;;;;;;;;;;5072679;28;20225;-75
2023/01/17 07:55:47;;;;;;;73.10;13.55;;;;;;;;;;5072455;28;20684;-73
2023/01/17 07:58:14;;;;;;;68.85;11.95;;;;;;;;;;5072281;28;20201;-73
2023/01/17 08:00:43;;;;;;;74.47;15.82;;;;;;;;;;5071625;28;20209;-73
2023/01/17 08:03:12;;;;;;;71.93;12.63;;;;;;;;;;5072366;28;20315;-73
2023/01/17 08:05:39;;;;;;;67.43;10.00;;;;;;;;;;5072244;28;20588;-73
2023/01/17 08:08:06;;;;;;;70.80;11.60;;;;;;;;;;5072233;28;20205;-72
2023/01/17 08:10:33;;;;;;;70.80;9.50;;;;;;;;;;5071742;28;20469;-72
2023/01/17 08:13:02;;;;;;;67.10;9.82;;;;;;;;;;5072131;28;20244;-72
2023/01/17 08:15:29;;;;;;;63.95;9.07;;;;;;;;;;5072280;28;20205;-72
2023/01/17 08:17:57;;;;;;;69.30;8.90;;;;;;;;;;5072223;28;20208;-72
2023/01/17 08:20:25;;;;;;;70.00;12.20;;;;;;;;;;5071239;28;20620;-71
2023/01/17 08:22:55;;;;;;;66.57;9.27;;;;;;;;;;5071789;28;20807;-71
2023/01/17 08:25:23;;;;;;;68.40;8.90;;;;;;;;;;5072210;28;20579;-71
2023/01/17 08:27:50;;;;;;;68.85;10.02;;;;;;;;;;5071848;28;20224;-72
2023/01/17 08:30:19;;;;;;;63.97;8.38;;;;;;;;;;5071042;28;20210;-72
2023/01/17 08:32:46;;;;;;;66.85;9.30;;;;;;;;;;5071934;28;20226;-70
2023/01/17 08:35:14;;;;;;;68.75;10.55;;;;;;;;;;5071758;28;20206;-72
2023/01/17 08:37:41;;;;;;;69.45;9.60;;;;;;;;;;5071883;28;20204;-72
2023/01/17 08:40:09;;;;;;;64.53;8.23;;;;;;;;;;5071078;28;20678;-72
2023/01/17 08:42:38;;;;;;;68.07;9.32;;;;;;;;;;5071531;28;20270;-71
2023/01/17 08:45:06;;;;;;;67.63;9.35;;;;;;;;;;5071890;28;20262;-70
2023/01/17 08:47:35;;;;;;;66.05;9.25;;;;;;;;;;5071449;28;20230;-70
2023/01/17 08:50:02;;;;;;;69.28;9.32;;;;;;;;;;5070967;28;20205;-69
2023/01/17 08:52:29;;;;;;;64.30;8.98;;;;;;;;;;5071060;28;20227;-69
2023/01/17 08:54:56;;;;;;;67.50;8.55;;;;;;;;;;5071462;28;20209;-70
2023/01/17 08:57:23;;;;;;;64.85;10.05;;;;;;;;;;5071506;28;20212;-69
2023/01/17 08:59:50;;;;;;;64.75;8.32;;;;;;;;;;5070742;28;20680;-70
2023/01/17 09:02:19;;;;;;;65.85;10.27;;;;;;;;;;5071703;28;20223;-70
2023/01/17 09:04:48;;;;;;;64.32;8.60;;;;;;;;;;5071405;28;20683;-70
2023/01/17 09:07:16;;;;;;;66.82;8.32;;;;;;;;;;5071434;28;20236;-70
2023/01/17 09:09:43;;;;;;;66.38;9.63;;;;;;;;;;5070367;28;20697;-69
2023/01/17 09:12:10;;;;;;;71.05;10.13;;;;;;;;;;5071730;28;20235;-70
2023/01/17 09:14:37;;;;;;;69.93;9.95;;;;;;;;;;5071472;28;20212;-69
2023/01/17 09:17:05;;;;;;;64.95;8.10;;;;;;;;;;5071508;28;20199;-70
2023/01/17 09:19:34;;;;;;;66.22;8.60;;;;;;;;;;5070672;28;20224;-70
2023/01/17 09:22:02;;;;;;;67.03;9.30;;;;;;;;;;5071199;28;20269;-70
2023/01/17 09:24:29;;;;;;;67.45;9.05;;;;;;;;;;5071513;28;20259;-70
2023/01/17 09:26:57;;;;;;;61.78;6.90;;;;;;;;;;5071338;28;20598;-70
2023/01/17 09:29:24;;;;;;;67.45;9.75;;;;;;;;;;5070613;28;20208;-70
2023/01/17 09:31:51;;;;;;;64.05;7.85;;;;;;;;;;5071291;28;20586;-70
2023/01/17 09:34:18;;;;;;;65.75;7.50;;;;;;;;;;5071222;28;20208;-69
2023/01/17 09:36:45;;;;;;;68.72;6.50;;;;;;;;;;5071049;28;20207;-70
2023/01/17 09:39:14;;;;;;;64.47;7.28;;;;;;;;;;5070594;28;20201;-70
2023/01/17 09:41:44;;;;;;;66.10;6.68;;;;;;;;;;5070968;28;20213;-70
2023/01/17 09:44:18;;;;;;;64.53;6.22;;;;;;;;;;5071286;28;20223;-70
2023/01/17 09:46:46;;;;;;;59.80;4.97;;;;;;;;;;5071307;28;20592;-70
2023/01/17 09:49:18;;;;;;;60.92;5.25;;;;;;;;;;5070227;28;20212;-70
2023/01/17 09:51:45;;;;;;;62.67;5.20;;;;;;;;;;5071203;28;20564;-70
2023/01/17 09:54:19;;;;;;;60.53;5.20;;;;;;;;;;5070959;28;20650;-69
2023/01/17 09:56:49;;;;;;;60.42;4.65;;;;;;;;;;5070921;28;20208;-70
2023/01/17 09:59:22;;;;;;;60.75;4.57;;;;;;;;;;5070145;28;20216;-69
2023/01/17 10:01:52;;;;;;;60.67;5.30;;;;;;;;;;5071003;28;20653;-70
2023/01/17 10:04:39;;;;;;;61.45;4.70;;;;;;;;;;5071076;28;20295;-69
2023/01/17 10:07:12;;;;;;;59.63;4.80;;;;;;;;;;5074322;28;20221;-70
2023/01/17 10:09:48;;;;;;;61.45;5.00;;;;;;;;;;5073660;28;20201;-70
2023/01/17 10:12:19;;;;;;;64.07;6.10;;;;;;;;;;5074154;28;20225;-69
2023/01/17 10:14:53;;;;;;;60.87;4.57;;;;;;;;;;5074492;28;20451;-69
2023/01/17 10:17:27;;;;;;;62.50;4.57;;;;;;;;;;5074269;28;20447;-70
2023/01/17 10:20:04;;;;;;;60.20;3.50;;;;;;;;;;5073582;28;20454;-69
2023/01/17 10:22:40;;;;;;;64.20;4.57;;;;;;;;;;5074063;28;20467;-69
2023/01/17 10:25:15;;;;;;;58.90;3.73;;;;;;;;;;5074144;28;20837;-70
2023/01/17 10:27:45;;;;;;;59.50;4.30;;;;;;;;;;5074154;28;20494;-70
2023/01/17 10:30:16;;;;;;;63.23;4.63;;;;;;;;;;5073573;28;20455;-70
2023/01/17 10:32:48;;;;;;;58.47;4.30;;;;;;;;;;5073944;28;20467;-70
2023/01/17 10:35:20;;;;;;;58.97;3.57;;;;;;;;;;5073880;28;20443;-70
2023/01/17 10:37:48;;;;;;;58.50;3.60;;;;;;;;;;5073924;28;20445;-70
2023/01/17 10:40:20;;;;;;;58.20;3.23;;;;;;;;;;5073203;28;20800;-70
2023/01/17 10:42:52;;;;;;;60.57;3.23;;;;;;;;;;5073888;28;20834;-70
2023/01/17 10:45:24;;;;;;;60.63;4.00;;;;;;;;;;5073816;28;20475;-70
2023/01/17 10:47:54;;;;;;;67.20;3.90;;;;;;;;;;5073870;28;20487;-70
2023/01/17 10:50:22;;;;;;;58.77;3.10;;;;;;;;;;5073197;28;20447;-70
2023/01/17 10:52:52;;;;;;;59.17;3.30;;;;;;;;;;5073924;28;20472;-70
2023/01/17 10:55:29;;;;;;;65.83;5.87;;;;;;;;;;5073756;28;20936;-70
2023/01/17 10:57:57;;;;;;;59.47;3.40;;;;;;;;;;5073381;28;20470;-70
2023/01/17 11:00:42;;;;;;;63.10;5.57;;;;;;;;;;5072766;28;20597;-70
2023/01/17 11:03:10;;;;;;;68.03;9.03;;;;;;;;;;5073517;28;20471;-70
2023/01/17 11:05:37;;;;;;;62.20;5.17;;;;;;;;;;5073403;28;20870;-69
2023/01/17 11:08:05;;;;;;;61.67;4.07;;;;;;;;;;5073126;28;20490;-69
2023/01/17 11:10:42;;;;;;;58.20;3.30;;;;;;;;;;5072444;28;20447;-69
2023/01/17 11:13:21;;;;;;;59.50;4.10;;;;;;;;;;5073362;28;20834;-69
2023/01/17 11:15:50;;;;;;;58.43;2.93;;;;;;;;;;5072937;28;20458;-69
2023/01/17 11:18:18;;;;;;;59.40;3.63;;;;;;;;;;5072956;28;20964;-69
2023/01/17 11:20:46;;;;;;;60.80;4.83;;;;;;;;;;5072388;28;20816;-70
2023/01/17 11:23:16;;;;;;;58.73;3.87;;;;;;;;;;5073108;28;20479;-70
2023/01/17 11:25:52;;;;;;;58.43;3.20;;;;;;;;;;5072984;28;20458;-70
2023/01/17 11:28:21;;;;;;;58.27;3.40;;;;;;;;;;5072999;28;20486;-70
2023/01/17 11:30:51;;;;;;;66.10;4.00;;;;;;;;;;5071243;28;20434;-71
2023/01/17 11:33:30;;;;;;;59.00;3.60;;;;;;;;;;5072820;28;20225;-70
2023/01/17 11:35:57;;;;;;;59.20;3.33;;;;;;;;;;5072974;28;20481;-70
2023/01/17 11:38:25;;;;;;;57.37;2.60;;;;;;;;;;5072629;28;20936;-70
2023/01/17 11:41:18;;;;;;;58.47;3.17;;;;;;;;;;5072008;28;20447;-70
2023/01/17 11:43:50;;;;;;;60.90;4.27;;;;;;;;;;5072265;28;20471;-70
2023/01/17 11:46:17;;;;;;;57.37;2.60;;;;;;;;;;5072478;28;20458;-70
2023/01/17 11:48:47;;;;;;;58.20;3.13;;;;;;;;;;5071735;28;20856;-71
2023/01/17 11:51:19;;;;;;;62.60;3.00;;;;;;;;;;5072501;28;20473;-70
2023/01/17 11:53:47;;;;;;;66.07;3.70;;;;;;;;;;5072300;28;20474;-69
2023/01/17 11:56:21;;;;;;;59.87;3.10;;;;;;;;;;5072219;28;20443;-71
2023/01/17 11:58:49;;;;;;;60.60;3.10;;;;;;;;;;5071473;28;20462;-70
2023/01/17 12:01:27;;;;;;;57.60;2.60;;;;;;;;;;5072354;28;20451;-71
2023/01/17 12:04:03;;;;;;;58.40;2.80;;;;;;;;;;5072321;28;20467;-71
2023/01/17 12:06:35;;;;;;;56.97;2.40;;;;;;;;;;5072379;28;20447;-70
2023/01/17 12:09:05;;;;;;;58.40;2.90;;;;;;;;;;5071365;28;20486;-71
2023/01/17 12:11:37;;;;;;;57.20;2.50;;;;;;;;;;5072252;28;20462;-71
2023/01/17 12:14:10;;;;;;;57.87;2.63;;;;;;;;;;5072156;28;20454;-71
2023/01/17 12:16:45;;;;;;;59.00;3.23;;;;;;;;;;5072186;28;20504;-71
2023/01/17 12:19:31;;;;;;;58.07;2.60;;;;;;;;;;5071243;28;20473;-71
2023/01/17 12:22:02;;;;;;;59.07;2.97;;;;;;;;;;5072047;28;20475;-71
2023/01/17 12:24:37;;;;;;;58.10;2.83;;;;;;;;;;5071988;28;20459;-71
2023/01/17 12:27:08;;;;;;;58.17;2.80;;;;;;;;;;5071660;28;20490;-71
2023/01/17 12:29:44;;;;;;;58.87;3.30;;;;;;;;;;5070580;28;20451;-71
2023/01/17 12:32:17;;;;;;;58.80;3.20;;;;;;;;;;5071653;28;20473;-71
2023/01/17 12:34:46;;;;;;;59.30;3.03;;;;;;;;;;5071969;28;20447;-71
2023/01/17 12:37:18;;;;;;;58.37;2.90;;;;;;;;;;5071794;28;20442;-71
2023/01/17 12:39:48;;;;;;;58.50;2.70;;;;;;;;;;5070966;28;20452;-71
2023/01/17 12:42:18;;;;;;;61.10;2.90;;;;;;;;;;5072315;28;20805;-70
2023/01/17 12:44:50;;;;;;;58.53;3.00;;;;;;;;;;5071842;28;20451;-71
2023/01/17 12:47:19;;;;;;;59.87;4.27;;;;;;;;;;5071518;28;20570;-71
2023/01/17 12:49:50;;;;;;;58.47;3.17;;;;;;;;;;5070825;28;20943;-70
2023/01/17 12:52:22;;;;;;;58.77;2.97;;;;;;;;;;5071340;28;20842;-72
2023/01/17 12:54:50;;;;;;;58.10;2.67;;;;;;;;;;5071507;28;20461;-70
2023/01/17 12:57:20;;;;;;;58.30;3.00;;;;;;;;;;5071575;28;20444;-70
2023/01/17 12:59:51;;;;;;;57.93;3.00;;;;;;;;;;5071093;28;20447;-71
2023/01/17 13:02:23;;;;;;;59.33;2.70;;;;;;;;;;5063882;28;20495;-70
2023/01/17 13:04:54;;;;;;;63.17;3.07;;;;;;;;;;5051108;28;20578;-70
2023/01/17 13:07:25;;;;;;;58.43;3.03;;;;;;;;;;5051000;28;20495;-71
2023/01/17 13:09:56;;;;;;;58.30;2.80;;;;;;;;;;5050591;28;20452;-70
2023/01/17 13:12:25;;;;;;;58.50;2.70;;;;;;;;;;5050998;28;20475;-70
2023/01/17 13:14:53;;;;;;;57.70;2.80;;;;;;;;;;5051234;28;20945;-69
2023/01/17 13:17:26;;;;;;;59.47;3.20;;;;;;;;;;5051341;28;20810;-70
2023/01/17 13:19:58;;;;;;;58.73;2.90;;;;;;;;;;5050460;28;20818;-70
2023/01/17 13:22:26;;;;;;;60.47;2.93;;;;;;;;;;5051280;28;20468;-70
2023/01/17 13:24:57;;;;;;;58.33;2.90;;;;;;;;;;5051084;28;20474;-70
2023/01/17 13:27:33;;;;;;;57.97;2.60;;;;;;;;;;5051245;28;20490;-69
2023/01/17 13:30:28;;;;;;;57.47;2.63;;;;;;;;;;5050896;28;20967;-70
2023/01/17 13:33:05;;;;;;;58.00;2.53;;;;;;;;;;5026830;28;20480;-70
2023/01/17 13:35:40;;;;;;;57.60;2.50;;;;;;;;;;5060267;28;20458;-69
2023/01/17 13:38:22;;;;;;;57.20;2.73;;;;;;;;;;5070922;28;20477;-70
2023/01/17 13:40:50;;;;;;;61.43;2.83;;;;;;;;;;5073806;28;20537;-70
2023/01/17 13:43:22;;;;;;;59.27;3.10;;;;;;;;;;5074970;28;20463;-70
2023/01/17 13:45:53;;;;;;;57.73;3.00;;;;;;;;;;5074973;28;20557;-70
2023/01/17 13:48:27;;;;;;;57.60;2.73;;;;;;;;;;5074646;28;20511;-70
2023/01/17 13:50:55;;;;;;;58.20;3.20;;;;;;;;;;5073843;28;20453;-70
2023/01/17 13:53:56;;;;;;;59.00;3.23;;;;;;;;;;5074824;28;20467;-70
2023/01/17 13:56:33;;;;;;;57.40;2.77;;;;;;;;;;5074873;28;20446;-69
2023/01/17 13:59:14;;;;;;;58.40;3.20;;;;;;;;;;5073754;28;20517;-70
2023/01/17 14:01:53;;;;;;;61.60;3.50;;;;;;;;;;5061856;28;20459;-70
2023/01/17 14:04:20;;;;;;;64.23;3.30;;;;;;;;;;5074602;28;20451;-70
2023/01/17 14:06:48;;;;;;;58.67;3.70;;;;;;;;;;5074497;28;20825;-69
2023/01/17 14:09:19;;;;;;;62.17;3.20;;;;;;;;;;5073554;28;20485;-69
2023/01/17 14:11:57;;;;;;;58.17;3.20;;;;;;;;;;5074195;28;20447;-70
2023/01/17 14:14:42;;;;;;;57.87;3.20;;;;;;;;;;5074124;28;20451;-70
2023/01/17 14:17:28;;;;;;;58.03;2.90;;;;;;;;;;5074350;28;20802;-69
2023/01/17 14:19:59;;;;;;;60.07;4.50;;;;;;;;;;5073474;28;20443;-69
2023/01/17 14:22:27;;;;;;;61.27;3.43;;;;;;;;;;5074295;28;20518;-69
2023/01/17 14:24:58;;;;;;;59.40;3.00;;;;;;;;;;5074141;28;20463;-70
2023/01/17 14:27:26;;;;;;;59.07;3.43;;;;;;;;;;5074122;28;20458;-70
2023/01/17 14:29:57;;;;;;;59.27;3.47;;;;;;;;;;5073336;28;20451;-69
2023/01/17 14:32:25;;;;;;;61.53;3.80;;;;;;;;;;5073932;28;20506;-69
2023/01/17 14:34:53;;;;;;;58.57;3.43;;;;;;;;;;5073758;28;20464;-70
2023/01/17 14:37:26;;;;;;;59.00;3.70;;;;;;;;;;5074201;28;20497;-69
2023/01/17 14:39:53;;;;;;;58.87;3.30;;;;;;;;;;5073315;28;20469;-69
2023/01/17 14:42:21;;;;;;;58.85;3.08;;;;;;;;;;5073749;28;20554;-70
2023/01/17 14:44:49;;;;;;;58.67;3.20;;;;;;;;;;5073739;28;20674;-70
2023/01/17 14:47:17;;;;;;;61.43;4.43;;;;;;;;;;5073642;28;20448;-69
2023/01/17 14:49:44;;;;;;;60.40;3.50;;;;;;;;;;5073136;28;20483;-70
2023/01/17 14:52:16;;;;;;;59.75;4.20;;;;;;;;;;5073049;28;20467;-69
2023/01/17 14:54:50;;;;;;;59.77;3.60;;;;;;;;;;5073837;28;20205;-70
2023/01/17 14:57:25;;;;;;;59.30;3.83;;;;;;;;;;5073719;28;20447;-70
2023/01/17 14:59:52;;;;;;;58.80;4.00;;;;;;;;;;5072829;28;20254;-70
2023/01/17 15:02:19;;;;;;;62.28;4.60;;;;;;;;;;5073566;28;20221;-69
2023/01/17 15:04:54;;;;;;;59.17;3.57;;;;;;;;;;5073463;28;20208;-70
2023/01/17 15:07:24;;;;;;;61.88;4.50;;;;;;;;;;5073401;28;20451;-69
2023/01/17 15:09:51;;;;;;;61.97;4.60;;;;;;;;;;5072369;28;20717;-70
2023/01/17 15:12:20;;;;;;;60.05;4.07;;;;;;;;;;5073298;28;20549;-70
2023/01/17 15:14:48;;;;;;;60.40;4.13;;;;;;;;;;5073294;28;20657;-70
2023/01/17 15:17:18;;;;;;;60.50;4.40;;;;;;;;;;5073225;28;20231;-70
2023/01/17 15:19:46;;;;;;;62.70;4.25;;;;;;;;;;5072494;28;20439;-70
2023/01/17 15:22:14;;;;;;;60.30;4.20;;;;;;;;;;5073000;28;20225;-70
2023/01/17 15:24:44;;;;;;;62.42;4.38;;;;;;;;;;5073154;28;20955;-70
2023/01/17 15:27:13;;;;;;;60.75;4.97;;;;;;;;;;5073175;28;20209;-70
2023/01/17 15:29:41;;;;;;;61.13;4.45;;;;;;;;;;5072157;28;20220;-71
2023/01/17 15:32:15;;;;;;;61.50;4.57;;;;;;;;;;5072752;28;20231;-70
2023/01/17 15:34:44;;;;;;;60.97;4.82;;;;;;;;;;5072716;28;20679;-70
2023/01/17 15:37:22;;;;;;;62.17;4.55;;;;;;;;;;5072554;28;20212;-69
2023/01/17 15:39:51;;;;;;;63.22;5.28;;;;;;;;;;5072115;28;20212;-70
2023/01/17 15:42:22;;;;;;;62.03;4.90;;;;;;;;;;5072635;28;20232;-69
2023/01/17 15:44:53;;;;;;;61.65;4.40;;;;;;;;;;5072612;28;20201;-70
2023/01/17 15:47:30;;;;;;;60.25;4.65;;;;;;;;;;5072510;28;20216;-70
2023/01/17 15:49:58;;;;;;;61.78;5.00;;;;;;;;;;5071676;28;20225;-70
2023/01/17 15:52:25;;;;;;;65.47;4.63;;;;;;;;;;5072404;28;20236;-70
2023/01/17 15:54:54;;;;;;;63.13;5.00;;;;;;;;;;5072607;28;20685;-71
2023/01/17 15:57:25;;;;;;;62.95;5.13;;;;;;;;;;5072344;28;20202;-70
2023/01/17 15:59:54;;;;;;;61.33;4.25;;;;;;;;;;5071469;28;20254;-70
2023/01/17 16:02:39;;;;;;;62.80;6.05;;;;;;;;;;5071843;28;20713;-71
2023/01/17 16:05:21;;;;;;;62.67;6.55;;;;;;;;;;5072443;28;20778;-71